createdAt,value
2023-04-27T00:00:43.715Z,92.47
2023-04-27T00:01:43.784Z,92.47
2023-04-27T00:02:43.826Z,92.47
2023-04-27T00:03:43.762Z,92.57
2023-04-27T00:04:43.988Z,92.57
2023-04-27T00:05:43.815Z,92.57
2023-04-27T00:06:43.683Z,92.68
2023-04-27T00:07:43.647Z,92.68
2023-04-27T00:08:43.650Z,92.68
2023-04-27T00:09:43.613Z,92.68
2023-04-27T00:10:43.617Z,92.68
2023-04-27T00:11:43.612Z,92.72
2023-04-27T00:12:43.583Z,92.68
2023-04-27T00:13:43.576Z,92.72
2023-04-27T00:14:43.577Z,92.51
2023-04-27T00:15:43.554Z,92.72
2023-04-27T00:16:43.639Z,92.72
2023-04-27T00:17:43.644Z,92.72
2023-04-27T00:18:43.522Z,92.72
2023-04-27T00:19:43.552Z,92.82
2023-04-27T00:20:43.507Z,92.82
2023-04-27T00:21:43.521Z,92.82
2023-04-27T00:22:43.482Z,93.07
2023-04-27T00:23:43.485Z,93.07
2023-04-27T00:24:43.450Z,93.18
2023-04-27T00:25:43.477Z,93.07
2023-04-27T00:26:43.452Z,93.18
2023-04-27T00:27:43.424Z,93.18
2023-04-27T00:28:43.426Z,93.18
2023-04-27T00:29:43.400Z,93.18
2023-04-27T00:30:43.393Z,93.18
2023-04-27T00:31:43.432Z,93.18
2023-04-27T00:32:43.378Z,93.18
2023-04-27T00:33:43.364Z,93.18
2023-04-27T00:34:43.354Z,93.18
2023-04-27T00:35:43.354Z,93.18
2023-04-27T00:36:43.347Z,93.18
2023-04-27T00:37:43.317Z,93.18
2023-04-27T00:38:43.308Z,93.28
2023-04-27T00:39:43.316Z,93.43
2023-04-27T00:40:43.284Z,93.38
2023-04-27T00:41:43.287Z,93.38
2023-04-27T00:42:43.289Z,93.38
2023-04-27T00:43:43.267Z,93.38
2023-04-27T00:44:43.241Z,93.38
2023-04-27T00:45:43.252Z,93.43
2023-04-27T00:46:43.257Z,93.43
2023-04-27T00:47:43.234Z,93.43
2023-04-27T00:48:43.208Z,93.32
2023-04-27T00:49:43.191Z,93.32
2023-04-27T00:50:43.180Z,93.43
2023-04-27T00:51:43.206Z,93.43
2023-04-27T00:52:43.170Z,93.53
2023-04-27T00:53:43.158Z,93.43
2023-04-27T00:54:43.153Z,93.43
2023-04-27T00:55:43.138Z,93.43
2023-04-27T00:56:43.130Z,93.43
2023-04-27T00:57:43.120Z,93.43
2023-04-27T00:58:43.095Z,93.43
2023-04-27T00:59:43.087Z,93.43
2023-04-27T01:00:43.069Z,93.43
2023-04-27T01:01:43.157Z,93.43
2023-04-27T01:02:43.137Z,93.43
2023-04-27T01:03:43.160Z,93.43
2023-04-27T01:04:43.040Z,93.43
2023-04-27T01:05:43.033Z,93.43
2023-04-27T01:06:43.029Z,93.53
2023-04-27T01:07:43.028Z,93.53
2023-04-27T01:08:42.962Z,93.63
2023-04-27T01:09:42.970Z,93.63
2023-04-27T01:10:42.964Z,93.68
2023-04-27T01:11:42.977Z,93.57
2023-04-27T01:12:42.934Z,93.57
2023-04-27T01:13:42.969Z,93.57
2023-04-27T01:14:42.904Z,93.57
2023-04-27T01:15:42.916Z,93.57
2023-04-27T01:16:42.959Z,93.68
2023-04-27T01:17:42.911Z,93.68
2023-04-27T01:18:42.871Z,93.78
2023-04-27T01:19:43.510Z,93.78
2023-04-27T01:20:42.846Z,93.78
2023-04-27T01:21:42.847Z,93.78
2023-04-27T01:22:42.852Z,93.78
2023-04-27T01:23:42.813Z,93.82
2023-04-27T01:24:42.812Z,93.82
2023-04-27T01:25:42.796Z,93.82
2023-04-27T01:26:42.794Z,93.82
2023-04-27T01:27:42.780Z,93.82
2023-04-27T01:28:42.756Z,93.82
2023-04-27T01:29:42.761Z,93.82
2023-04-27T01:30:42.749Z,93.82
2023-04-27T01:31:42.831Z,93.82
2023-04-27T01:32:42.766Z,93.82
2023-04-27T01:33:42.705Z,93.82
2023-04-27T01:34:42.688Z,93.93
2023-04-27T01:35:42.685Z,93.82
2023-04-27T01:36:42.692Z,93.82
2023-04-27T01:37:42.667Z,93.82
2023-04-27T01:38:42.645Z,93.93
2023-04-27T01:39:42.647Z,93.82
2023-04-27T01:40:42.635Z,93.93
2023-04-27T01:41:42.647Z,93.93
2023-04-27T01:42:42.619Z,93.93
2023-04-27T01:43:42.606Z,93.93
2023-04-27T01:44:42.604Z,93.93
2023-04-27T01:45:42.580Z,94.03
2023-04-27T01:46:42.625Z,94.03
2023-04-27T01:47:42.648Z,93.93
2023-04-27T01:48:42.571Z,93.93
2023-04-27T01:49:42.536Z,94.03
2023-04-27T01:50:42.549Z,94.03
2023-04-27T01:51:42.517Z,94.03
2023-04-27T01:52:42.521Z,94.13
2023-04-27T01:53:42.515Z,94.24
2023-04-27T01:54:42.476Z,94.24
2023-04-27T01:55:42.471Z,94.34
2023-04-27T01:56:42.478Z,94.34
2023-04-27T01:57:42.478Z,94.45
2023-04-27T01:58:42.439Z,94.55
2023-04-27T01:59:42.440Z,94.55
2023-04-27T02:00:42.421Z,94.51
2023-04-27T02:01:42.458Z,94.51
2023-04-27T02:02:42.569Z,94.61
2023-04-27T02:03:42.506Z,94.61
2023-04-27T02:04:42.430Z,94.61
2023-04-27T02:05:42.380Z,94.71
2023-04-27T02:06:42.360Z,94.71
2023-04-27T02:07:42.378Z,94.71
2023-04-27T02:08:42.323Z,94.71
2023-04-27T02:09:42.315Z,94.71
2023-04-27T02:10:42.325Z,94.61
2023-04-27T02:11:42.300Z,94.61
2023-04-27T02:12:42.309Z,94.61
2023-04-27T02:13:42.300Z,94.51
2023-04-27T02:14:42.273Z,94.57
2023-04-27T02:15:42.286Z,94.36
2023-04-27T02:16:42.298Z,94.26
2023-04-27T02:17:42.279Z,94.15
2023-04-27T02:18:42.219Z,94.15
2023-04-27T02:19:42.223Z,94.15
2023-04-27T02:20:42.208Z,94.15
2023-04-27T02:21:42.192Z,94.05
2023-04-27T02:22:42.192Z,93.95
2023-04-27T02:23:42.175Z,93.84
2023-04-27T02:24:42.172Z,93.99
2023-04-27T02:25:42.150Z,93.99
2023-04-27T02:26:42.148Z,93.99
2023-04-27T02:27:42.133Z,93.88
2023-04-27T02:28:42.143Z,93.99
2023-04-27T02:29:42.100Z,94.09
2023-04-27T02:30:42.092Z,94.20
2023-04-27T02:31:42.123Z,94.30
2023-04-27T02:32:42.124Z,94.40
2023-04-27T02:33:42.065Z,94.40
2023-04-27T02:34:42.126Z,94.55
2023-04-27T02:35:42.041Z,94.55
2023-04-27T02:36:42.033Z,94.55
2023-04-27T02:37:42.024Z,94.55
2023-04-27T02:38:42.006Z,94.65
2023-04-27T02:39:41.997Z,94.65
2023-04-27T02:40:42.017Z,94.65
2023-04-27T02:41:41.973Z,94.65
2023-04-27T02:42:41.979Z,94.65
2023-04-27T02:43:41.946Z,94.65
2023-04-27T02:44:41.970Z,94.65
2023-04-27T02:45:41.929Z,94.65
2023-04-27T02:46:41.959Z,94.55
2023-04-27T02:47:41.969Z,94.55
2023-04-27T02:48:41.895Z,94.65
2023-04-27T02:49:41.888Z,94.55
2023-04-27T02:50:41.915Z,94.55
2023-04-27T02:51:41.864Z,94.55
2023-04-27T02:52:41.869Z,94.55
2023-04-27T02:53:41.871Z,94.59
2023-04-27T02:54:41.826Z,94.70
2023-04-27T02:55:41.843Z,94.70
2023-04-27T02:56:41.822Z,94.70
2023-04-27T02:57:41.826Z,94.70
2023-04-27T02:58:41.826Z,94.70
2023-04-27T02:59:41.799Z,94.70
2023-04-27T03:00:41.793Z,94.70
2023-04-27T03:01:41.925Z,94.80
2023-04-27T03:02:41.861Z,94.80
2023-04-27T03:03:41.796Z,94.80
2023-04-27T03:04:41.778Z,94.90
2023-04-27T03:05:41.709Z,94.90
2023-04-27T03:06:41.743Z,94.90
2023-04-27T03:07:41.690Z,94.90
2023-04-27T03:08:41.678Z,94.90
2023-04-27T03:09:41.693Z,94.90
2023-04-27T03:10:41.669Z,94.80
2023-04-27T03:11:41.655Z,94.80
2023-04-27T03:12:41.656Z,94.80
2023-04-27T03:13:41.646Z,94.90
2023-04-27T03:14:41.632Z,94.90
2023-04-27T03:15:41.642Z,94.90
2023-04-27T03:16:41.682Z,94.90
2023-04-27T03:17:41.591Z,94.90
2023-04-27T03:18:41.561Z,94.90
2023-04-27T03:19:41.590Z,94.90
2023-04-27T03:20:41.572Z,95.01
2023-04-27T03:21:41.559Z,95.01
2023-04-27T03:22:41.542Z,95.11
2023-04-27T03:23:41.499Z,95.11
2023-04-27T03:24:41.548Z,95.11
2023-04-27T03:25:41.500Z,95.11
2023-04-27T03:26:41.492Z,95.11
2023-04-27T03:27:41.462Z,95.07
2023-04-27T03:28:41.466Z,95.11
2023-04-27T03:29:41.461Z,95.07
2023-04-27T03:30:41.493Z,95.17
2023-04-27T03:31:41.497Z,95.07
2023-04-27T03:32:41.460Z,95.07
2023-04-27T03:33:41.412Z,95.17
2023-04-27T03:34:41.422Z,95.17
2023-04-27T03:35:41.383Z,95.17
2023-04-27T03:36:41.390Z,95.17
2023-04-27T03:37:41.362Z,95.17
2023-04-27T03:38:41.408Z,95.28
2023-04-27T03:39:41.361Z,95.28
2023-04-27T03:40:41.341Z,95.38
2023-04-27T03:41:41.315Z,95.38
2023-04-27T03:42:41.363Z,95.38
2023-04-27T03:43:41.318Z,95.48
2023-04-27T03:44:41.316Z,95.48
2023-04-27T03:45:41.292Z,95.48
2023-04-27T03:46:41.280Z,95.48
2023-04-27T03:47:41.401Z,95.59
2023-04-27T03:48:41.267Z,95.48
2023-04-27T03:49:41.256Z,95.44
2023-04-27T03:50:41.231Z,95.44
2023-04-27T03:51:41.237Z,95.48
2023-04-27T03:52:41.198Z,95.48
2023-04-27T03:53:41.192Z,95.48
2023-04-27T03:54:41.192Z,95.44
2023-04-27T03:55:41.177Z,95.44
2023-04-27T03:56:41.211Z,95.44
2023-04-27T03:57:41.151Z,95.44
2023-04-27T03:58:41.129Z,95.44
2023-04-27T03:59:41.149Z,95.44
2023-04-27T04:00:41.117Z,95.54
2023-04-27T04:01:41.127Z,95.54
2023-04-27T04:02:41.185Z,95.54
2023-04-27T04:03:41.248Z,95.54
2023-04-27T04:04:41.312Z,95.54
2023-04-27T04:05:41.059Z,95.54
2023-04-27T04:06:41.041Z,95.54
2023-04-27T04:07:41.059Z,95.54
2023-04-27T04:08:41.063Z,95.54
2023-04-27T04:09:41.039Z,95.54
2023-04-27T04:10:41.007Z,95.54
2023-04-27T04:11:41.017Z,95.54
2023-04-27T04:12:40.993Z,95.65
2023-04-27T04:13:40.969Z,95.65
2023-04-27T04:14:40.998Z,95.65
2023-04-27T04:15:40.990Z,95.54
2023-04-27T04:16:40.948Z,95.54
2023-04-27T04:17:40.986Z,95.54
2023-04-27T04:18:40.932Z,95.54
2023-04-27T04:19:40.931Z,95.54
2023-04-27T04:20:40.894Z,95.44
2023-04-27T04:21:40.887Z,95.44
2023-04-27T04:22:41.527Z,95.44
2023-04-27T04:23:40.866Z,95.44
2023-04-27T04:24:40.873Z,95.44
2023-04-27T04:25:40.851Z,95.44
2023-04-27T04:26:40.829Z,95.44
2023-04-27T04:27:40.834Z,95.44
2023-04-27T04:28:40.834Z,95.44
2023-04-27T04:29:40.828Z,95.38
2023-04-27T04:30:40.776Z,95.48
2023-04-27T04:31:40.816Z,95.48
2023-04-27T04:32:40.821Z,95.48
2023-04-27T04:33:40.750Z,95.48
2023-04-27T04:34:40.769Z,95.48
2023-04-27T04:35:40.768Z,95.48
2023-04-27T04:36:40.718Z,95.48
2023-04-27T04:37:40.725Z,95.38
2023-04-27T04:38:40.729Z,95.48
2023-04-27T04:39:40.701Z,95.38
2023-04-27T04:40:40.705Z,95.48
2023-04-27T04:41:40.664Z,95.48
2023-04-27T04:42:40.655Z,95.48
2023-04-27T04:43:40.663Z,95.48
2023-04-27T04:44:40.671Z,95.48
2023-04-27T04:45:40.661Z,95.59
2023-04-27T04:46:40.665Z,95.44
2023-04-27T04:47:40.650Z,95.48
2023-04-27T04:48:40.615Z,95.48
2023-04-27T04:49:40.599Z,95.59
2023-04-27T04:50:40.580Z,95.59
2023-04-27T04:51:40.578Z,95.69
2023-04-27T04:52:40.563Z,95.69
2023-04-27T04:53:40.538Z,95.79
2023-04-27T04:54:40.554Z,95.79
2023-04-27T04:55:40.549Z,95.79
2023-04-27T04:56:40.520Z,95.90
2023-04-27T04:57:40.489Z,95.90
2023-04-27T04:58:40.475Z,95.90
2023-04-27T04:59:40.486Z,96.00
2023-04-27T05:00:40.472Z,96.00
2023-04-27T05:01:40.484Z,96.00
2023-04-27T05:02:40.577Z,96.00
2023-04-27T05:03:40.594Z,96.00
2023-04-27T05:04:40.492Z,96.00
2023-04-27T05:05:40.438Z,96.00
2023-04-27T05:06:40.401Z,96.00
2023-04-27T05:07:40.389Z,96.00
2023-04-27T05:08:40.420Z,95.96
2023-04-27T05:09:40.359Z,95.96
2023-04-27T05:10:40.370Z,95.96
2023-04-27T05:11:40.344Z,95.96
2023-04-27T05:12:40.341Z,95.96
2023-04-27T05:13:40.323Z,95.96
2023-04-27T05:14:40.330Z,95.96
2023-04-27T05:15:40.325Z,95.96
2023-04-27T05:16:40.414Z,95.96
2023-04-27T05:17:40.303Z,95.96
2023-04-27T05:18:40.260Z,95.86
2023-04-27T05:19:40.282Z,95.92
2023-04-27T05:20:40.260Z,95.92
2023-04-27T05:21:40.238Z,96.02
2023-04-27T05:22:40.247Z,96.02
2023-04-27T05:23:40.213Z,96.02
2023-04-27T05:24:40.207Z,95.92
2023-04-27T05:25:40.200Z,95.92
2023-04-27T05:26:40.206Z,95.81
2023-04-27T05:27:40.175Z,95.81
2023-04-27T05:28:40.173Z,95.81
2023-04-27T05:29:40.140Z,95.77
2023-04-27T05:30:40.156Z,95.77
2023-04-27T05:31:40.160Z,95.77
2023-04-27T05:32:40.155Z,95.77
2023-04-27T05:33:40.102Z,95.67
2023-04-27T05:34:40.090Z,95.51
2023-04-27T05:35:40.101Z,95.51
2023-04-27T05:36:40.076Z,95.51
2023-04-27T05:37:40.067Z,95.47
2023-04-27T05:38:40.210Z,95.47
2023-04-27T05:39:40.070Z,95.57
2023-04-27T05:40:40.052Z,95.57
2023-04-27T05:41:40.033Z,95.57
2023-04-27T05:42:46.547Z,95.57
2023-04-27T05:43:39.997Z,95.64
2023-04-27T05:44:40.000Z,95.64
2023-04-27T05:45:40.022Z,95.53
2023-04-27T05:46:39.968Z,95.64
2023-04-27T05:47:39.987Z,95.59
2023-04-27T05:48:39.931Z,95.59
2023-04-27T05:49:39.930Z,95.49
2023-04-27T05:50:39.941Z,95.39
2023-04-27T05:51:39.901Z,95.34
2023-04-27T05:52:39.913Z,95.18
2023-04-27T05:53:39.880Z,95.03
2023-04-27T05:54:39.874Z,95.14
2023-04-27T05:55:39.878Z,95.24
2023-04-27T05:56:39.854Z,95.24
2023-04-27T05:57:40.501Z,95.14
2023-04-27T05:58:39.827Z,95.14
2023-04-27T05:59:39.828Z,94.89
2023-04-27T06:00:39.880Z,94.78
2023-04-27T06:01:39.801Z,94.78
2023-04-27T06:02:39.889Z,94.57
2023-04-27T06:03:39.977Z,94.22
2023-04-27T06:04:39.801Z,93.91
2023-04-27T06:05:39.850Z,93.49
2023-04-27T06:06:39.749Z,93.08
2023-04-27T06:07:39.746Z,92.87
2023-04-27T06:08:39.736Z,92.97
2023-04-27T06:09:39.716Z,93.08
2023-04-27T06:10:39.728Z,93.24
2023-04-27T06:11:39.697Z,93.35
2023-04-27T06:12:39.693Z,93.24
2023-04-27T06:13:39.666Z,93.20
2023-04-27T06:14:39.670Z,93.10
2023-04-27T06:15:39.723Z,92.99
2023-04-27T06:16:39.629Z,92.79
2023-04-27T06:17:39.654Z,92.58
2023-04-27T06:18:39.610Z,92.38
2023-04-27T06:19:39.599Z,91.55
2023-04-27T06:20:39.606Z,91.55
2023-04-27T06:21:39.584Z,91.75
2023-04-27T06:22:39.572Z,92.07
2023-04-27T06:23:39.555Z,92.02
2023-04-27T06:24:39.550Z,92.02
2023-04-27T06:25:40.282Z,92.23
2023-04-27T06:26:39.531Z,92.23
2023-04-27T06:27:39.533Z,92.13
2023-04-27T06:28:39.519Z,92.02
2023-04-27T06:29:39.492Z,91.82
2023-04-27T06:30:39.892Z,91.50
2023-04-27T06:31:39.500Z,91.40
2023-04-27T06:32:39.492Z,91.61
2023-04-27T06:33:39.459Z,91.61
2023-04-27T06:34:39.431Z,91.50
2023-04-27T06:35:39.479Z,91.40
2023-04-27T06:36:39.414Z,90.89
2023-04-27T06:37:39.399Z,90.64
2023-04-27T06:38:39.405Z,90.43
2023-04-27T06:39:39.388Z,90.33
2023-04-27T06:40:39.394Z,90.43
2023-04-27T06:41:39.366Z,90.12
2023-04-27T06:42:39.363Z,90.12
2023-04-27T06:43:39.344Z,90.02
2023-04-27T06:44:39.339Z,90.08
2023-04-27T06:45:39.334Z,90.19
2023-04-27T06:46:39.344Z,90.19
2023-04-27T06:47:39.322Z,90.08
2023-04-27T06:48:39.286Z,89.87
2023-04-27T06:49:39.292Z,89.87
2023-04-27T06:50:39.272Z,89.36
2023-04-27T06:51:39.260Z,88.43
2023-04-27T06:52:39.243Z,88.32
2023-04-27T06:53:39.236Z,87.98
2023-04-27T06:54:39.209Z,88.18
2023-04-27T06:55:39.977Z,87.56
2023-04-27T06:56:39.223Z,87.01
2023-04-27T06:57:39.190Z,86.80
2023-04-27T06:58:39.172Z,86.90
2023-04-27T06:59:39.160Z,86.80
2023-04-27T07:00:39.263Z,86.55
2023-04-27T07:01:39.219Z,85.94
2023-04-27T07:02:39.294Z,86.45
2023-04-27T07:03:39.336Z,84.80
2023-04-27T07:04:39.124Z,84.56
2023-04-27T07:05:39.122Z,84.97
2023-04-27T07:06:39.102Z,85.17
2023-04-27T07:07:39.077Z,83.22
2023-04-27T07:08:39.076Z,83.32
2023-04-27T07:09:39.070Z,83.84
2023-04-27T07:10:39.074Z,84.25
2023-04-27T07:11:39.033Z,84.62
2023-04-27T07:12:39.036Z,85.14
2023-04-27T07:13:39.017Z,85.24
2023-04-27T07:14:38.995Z,84.72
2023-04-27T07:15:39.001Z,84.62
2023-04-27T07:16:39.029Z,84.00
2023-04-27T07:17:39.027Z,83.49
2023-04-27T07:18:39.060Z,83.28
2023-04-27T07:19:38.952Z,83.45
2023-04-27T07:20:38.971Z,83.86
2023-04-27T07:21:38.926Z,83.25
2023-04-27T07:22:38.911Z,82.83
2023-04-27T07:23:38.901Z,82.63
2023-04-27T07:24:38.889Z,82.48
2023-04-27T07:25:38.893Z,82.79
2023-04-27T07:26:38.867Z,83.00
2023-04-27T07:27:38.857Z,82.79
2023-04-27T07:28:38.881Z,82.86
2023-04-27T07:29:38.834Z,83.06
2023-04-27T07:30:38.844Z,82.34
2023-04-27T07:31:38.854Z,81.01
2023-04-27T07:32:38.806Z,81.73
2023-04-27T07:33:38.800Z,82.14
2023-04-27T07:34:52.047Z,81.32
2023-04-27T07:35:38.791Z,81.62
2023-04-27T07:36:38.761Z,81.11
2023-04-27T07:37:38.778Z,81.21
2023-04-27T07:38:38.772Z,80.60
2023-04-27T07:39:38.725Z,80.60
2023-04-27T07:40:38.738Z,80.39
2023-04-27T07:41:38.705Z,80.39
2023-04-27T07:42:38.706Z,80.60
2023-04-27T07:43:38.681Z,80.46
2023-04-27T07:44:38.663Z,79.84
2023-04-27T07:45:38.727Z,79.94
2023-04-27T07:46:38.646Z,80.11
2023-04-27T07:47:38.680Z,79.70
2023-04-27T07:48:38.638Z,79.70
2023-04-27T07:49:38.612Z,80.11
2023-04-27T07:50:38.623Z,79.56
2023-04-27T07:51:38.604Z,78.23
2023-04-27T07:52:38.589Z,78.85
2023-04-27T07:53:38.592Z,78.70
2023-04-27T07:54:38.573Z,79.22
2023-04-27T07:55:38.577Z,78.91
2023-04-27T07:56:38.565Z,79.11
2023-04-27T07:57:38.552Z,79.42
2023-04-27T07:58:38.535Z,78.09
2023-04-27T07:59:38.510Z,75.76
2023-04-27T08:00:38.508Z,75.87
2023-04-27T08:01:38.505Z,76.79
2023-04-27T08:02:38.610Z,77.00
2023-04-27T08:03:38.854Z,77.61
2023-04-27T08:04:38.762Z,77.51
2023-04-27T08:05:38.702Z,76.48
2023-04-27T08:06:39.313Z,75.97
2023-04-27T08:07:44.189Z,76.17
2023-04-27T08:08:38.405Z,76.34
2023-04-27T08:09:38.401Z,75.62
2023-04-27T08:10:38.397Z,76.89
2023-04-27T08:11:38.398Z,76.89
2023-04-27T08:12:38.378Z,76.48
2023-04-27T08:13:38.353Z,76.48
2023-04-27T08:14:38.340Z,76.48
2023-04-27T08:15:38.344Z,76.58
2023-04-27T08:16:38.350Z,75.97
2023-04-27T08:17:38.337Z,73.81
2023-04-27T08:18:38.294Z,73.10
2023-04-27T08:19:38.296Z,73.68
2023-04-27T08:20:38.290Z,74.57
2023-04-27T08:21:38.273Z,73.02
2023-04-27T08:22:38.251Z,72.99
2023-04-27T08:23:38.250Z,72.55
2023-04-27T08:24:38.225Z,73.06
2023-04-27T08:25:38.247Z,71.73
2023-04-27T08:26:38.207Z,71.22
2023-04-27T08:27:38.227Z,72.07
2023-04-27T08:28:38.187Z,72.31
2023-04-27T08:29:38.184Z,72.00
2023-04-27T08:30:38.193Z,72.41
2023-04-27T08:31:38.206Z,73.02
2023-04-27T08:32:38.252Z,73.54
2023-04-27T08:33:38.133Z,73.54
2023-04-27T08:34:38.115Z,72.61
2023-04-27T08:35:38.134Z,73.13
2023-04-27T08:36:38.096Z,71.90
2023-04-27T08:37:38.093Z,72.27
2023-04-27T08:38:38.090Z,71.25
2023-04-27T08:39:38.156Z,69.40
2023-04-27T08:40:38.061Z,69.40
2023-04-27T08:41:38.053Z,69.30
2023-04-27T08:42:38.046Z,70.32
2023-04-27T08:43:38.022Z,70.09
2023-04-27T08:44:38.011Z,69.65
2023-04-27T08:45:38.013Z,69.51
2023-04-27T08:46:38.073Z,66.34
2023-04-27T08:47:43.551Z,66.24
2023-04-27T08:48:37.962Z,68.28
2023-04-27T08:49:37.954Z,69.24
2023-04-27T08:50:37.964Z,68.79
2023-04-27T08:51:37.935Z,68.73
2023-04-27T08:52:37.925Z,69.13
2023-04-27T08:53:37.929Z,70.23
2023-04-27T08:54:37.899Z,71.04
2023-04-27T08:55:37.903Z,69.82
2023-04-27T08:56:37.882Z,67.80
2023-04-27T08:57:37.871Z,68.41
2023-04-27T08:58:38.139Z,68.32
2023-04-27T08:59:37.854Z,68.73
2023-04-27T09:00:37.861Z,69.75
2023-04-27T09:01:37.870Z,68.55
2023-04-27T09:02:37.923Z,68.96
2023-04-27T09:03:37.985Z,69.68
2023-04-27T09:04:37.946Z,69.47
2023-04-27T09:05:42.263Z,69.27
2023-04-27T09:06:37.780Z,68.65
2023-04-27T09:07:37.765Z,68.52
2023-04-27T09:08:37.751Z,68.21
2023-04-27T09:09:37.739Z,66.47
2023-04-27T09:10:37.765Z,66.75
2023-04-27T09:11:37.721Z,67.02
2023-04-27T09:12:37.709Z,65.46
2023-04-27T09:13:37.703Z,65.33
2023-04-27T09:14:37.681Z,65.80
2023-04-27T09:15:37.692Z,65.19
2023-04-27T09:16:37.722Z,64.75
2023-04-27T09:17:37.700Z,64.04
2023-04-27T09:18:37.669Z,64.14
2023-04-27T09:19:37.633Z,65.23
2023-04-27T09:20:37.628Z,64.62
2023-04-27T09:21:37.623Z,65.47
2023-04-27T09:22:37.613Z,64.34
2023-04-27T09:23:37.584Z,64.45
2023-04-27T09:24:37.580Z,63.83
2023-04-27T09:25:37.567Z,63.76
2023-04-27T09:26:37.572Z,64.07
2023-04-27T09:27:37.548Z,65.73
2023-04-27T09:28:37.536Z,66.96
2023-04-27T09:29:37.539Z,67.78
2023-04-27T09:30:37.509Z,66.14
2023-04-27T09:31:37.579Z,64.10
2023-04-27T09:32:37.515Z,63.18
2023-04-27T09:33:37.493Z,64.71
2023-04-27T09:34:37.473Z,64.17
2023-04-27T09:35:37.452Z,64.68
2023-04-27T09:36:37.463Z,64.81
2023-04-27T09:37:37.453Z,62.80
2023-04-27T09:38:37.422Z,64.23
2023-04-27T09:39:37.425Z,64.84
2023-04-27T09:40:37.403Z,64.74
2023-04-27T09:41:37.399Z,65.05
2023-04-27T09:42:37.379Z,63.95
2023-04-27T09:43:37.368Z,64.36
2023-04-27T09:44:37.354Z,64.57
2023-04-27T09:45:37.424Z,64.26
2023-04-27T09:46:37.361Z,62.45
2023-04-27T09:47:37.375Z,61.93
2023-04-27T09:48:37.313Z,62.55
2023-04-27T09:49:37.325Z,61.93
2023-04-27T09:50:38.159Z,64.09
2023-04-27T09:51:37.299Z,60.06
2023-04-27T09:52:37.266Z,60.55
2023-04-27T09:53:37.272Z,62.16
2023-04-27T09:54:37.239Z,60.11
2023-04-27T09:55:37.240Z,60.49
2023-04-27T09:56:37.243Z,61.69
2023-04-27T09:57:37.229Z,62.92
2023-04-27T09:58:38.163Z,63.63
2023-04-27T09:59:37.273Z,62.88
2023-04-27T10:00:37.194Z,62.30
2023-04-27T10:01:37.637Z,62.30
2023-04-27T10:02:49.989Z,62.71
2023-04-27T10:03:37.341Z,63.43
2023-04-27T10:04:37.405Z,62.81
2023-04-27T10:05:37.133Z,63.29
2023-04-27T10:06:37.134Z,63.16
2023-04-27T10:07:37.110Z,62.45
2023-04-27T10:08:37.104Z,62.35
2023-04-27T10:09:37.078Z,62.21
2023-04-27T10:10:37.074Z,63.13
2023-04-27T10:11:37.078Z,62.21
2023-04-27T10:12:37.053Z,62.21
2023-04-27T10:13:37.029Z,60.89
2023-04-27T10:14:37.035Z,62.32
2023-04-27T10:15:37.011Z,62.24
2023-04-27T10:16:37.041Z,60.41
2023-04-27T10:17:37.084Z,61.15
2023-04-27T10:18:36.982Z,62.37
2023-04-27T10:19:36.985Z,62.40
2023-04-27T10:20:37.069Z,63.02
2023-04-27T10:21:36.980Z,63.32
2023-04-27T10:22:36.930Z,63.35
2023-04-27T10:23:36.939Z,63.96
2023-04-27T10:24:36.930Z,64.78
2023-04-27T10:25:36.913Z,64.58
2023-04-27T10:26:39.352Z,64.68
2023-04-27T10:27:36.881Z,66.21
2023-04-27T10:28:36.873Z,63.86
2023-04-27T10:29:36.861Z,65.02
2023-04-27T10:30:36.874Z,65.70
2023-04-27T10:31:36.889Z,65.80
2023-04-27T10:32:36.858Z,65.19
2023-04-27T10:33:36.821Z,66.52
2023-04-27T10:34:36.926Z,67.34
2023-04-27T10:35:36.794Z,65.57
2023-04-27T10:36:36.787Z,65.06
2023-04-27T10:37:36.796Z,65.98
2023-04-27T10:38:36.763Z,66.15
2023-04-27T10:39:47.184Z,67.55
2023-04-27T10:40:36.744Z,62.73
2023-04-27T10:41:36.726Z,64.22
2023-04-27T10:42:36.721Z,66.33
2023-04-27T10:43:36.728Z,64.98
2023-04-27T10:44:36.704Z,61.69
2023-04-27T10:45:36.703Z,61.59
2023-04-27T10:46:36.852Z,62.61
2023-04-27T10:47:36.732Z,61.79
2023-04-27T10:48:36.652Z,60.91
2023-04-27T10:49:36.686Z,61.11
2023-04-27T10:50:36.635Z,60.05
2023-04-27T10:51:36.628Z,62.21
2023-04-27T10:52:36.627Z,63.54
2023-04-27T10:53:36.593Z,61.78
2023-04-27T10:54:36.592Z,63.82
2023-04-27T10:55:36.595Z,61.98
2023-04-27T10:56:36.573Z,62.90
2023-04-27T10:57:36.583Z,62.90
2023-04-27T10:58:48.333Z,63.23
2023-04-27T10:59:36.563Z,64.22
2023-04-27T11:00:36.519Z,63.20
2023-04-27T11:01:36.565Z,62.70
2023-04-27T11:02:36.593Z,62.90
2023-04-27T11:03:36.765Z,63.20
2023-04-27T11:04:36.510Z,62.29
2023-04-27T11:05:36.468Z,61.75
2023-04-27T11:06:36.470Z,60.73
2023-04-27T11:07:36.460Z,62.16
2023-04-27T11:08:36.453Z,61.11
2023-04-27T11:09:36.439Z,61.93
2023-04-27T11:10:36.432Z,63.15
2023-04-27T11:11:36.449Z,60.93
2023-04-27T11:12:36.398Z,61.27
2023-04-27T11:13:36.424Z,61.50
2023-04-27T11:14:36.376Z,61.30
2023-04-27T11:15:36.360Z,62.14
2023-04-27T11:16:36.430Z,62.85
2023-04-27T11:17:36.395Z,62.37
2023-04-27T11:18:36.339Z,63.49
2023-04-27T11:19:36.340Z,63.90
2023-04-27T11:20:36.316Z,64.62
2023-04-27T11:21:36.299Z,63.60
2023-04-27T11:22:36.301Z,62.88
2023-04-27T11:23:36.273Z,62.78
2023-04-27T11:24:36.280Z,65.34
2023-04-27T11:25:36.252Z,65.34
2023-04-27T11:26:36.235Z,65.10
2023-04-27T11:27:36.222Z,63.67
2023-04-27T11:28:36.219Z,63.54
2023-04-27T11:29:36.226Z,62.90
2023-04-27T11:30:36.195Z,63.38
2023-04-27T11:31:36.274Z,63.04
2023-04-27T11:32:36.269Z,59.89
2023-04-27T11:33:36.158Z,58.74
2023-04-27T11:34:36.173Z,59.45
2023-04-27T11:35:36.152Z,59.75
2023-04-27T11:36:36.136Z,60.47
2023-04-27T11:37:36.119Z,60.98
2023-04-27T11:38:36.137Z,61.49
2023-04-27T11:39:36.132Z,62.07
2023-04-27T11:40:36.093Z,61.76
2023-04-27T11:41:36.077Z,60.54
2023-04-27T11:42:36.058Z,59.73
2023-04-27T11:43:36.061Z,59.60
2023-04-27T11:44:36.077Z,60.28
2023-04-27T11:45:36.056Z,59.47
2023-04-27T11:46:36.045Z,59.91
2023-04-27T11:47:36.122Z,61.33
2023-04-27T11:48:36.002Z,59.60
2023-04-27T11:49:36.010Z,59.12
2023-04-27T11:50:35.985Z,59.14
2023-04-27T11:51:35.963Z,60.91
2023-04-27T11:52:35.962Z,62.13
2023-04-27T11:53:35.947Z,61.65
2023-04-27T11:54:35.941Z,62.56
2023-04-27T11:55:35.919Z,63.61
2023-04-27T11:56:35.914Z,62.08
2023-04-27T11:57:35.960Z,62.29
2023-04-27T11:58:35.888Z,63.20
2023-04-27T11:59:35.893Z,64.73
2023-04-27T12:00:35.862Z,62.49
2023-04-27T12:01:38.389Z,63.31
2023-04-27T12:02:36.008Z,63.10
2023-04-27T12:03:36.005Z,63.00
2023-04-27T12:04:36.106Z,64.84
2023-04-27T12:05:35.891Z,63.89
2023-04-27T12:06:35.880Z,62.77
2023-04-27T12:07:35.787Z,62.66
2023-04-27T12:08:35.778Z,62.13
2023-04-27T12:09:35.822Z,61.72
2023-04-27T12:10:35.764Z,62.94
2023-04-27T12:11:35.755Z,61.99
2023-04-27T12:12:35.739Z,60.77
2023-04-27T12:13:35.730Z,61.49
2023-04-27T12:14:35.745Z,62.10
2023-04-27T12:15:35.698Z,61.61
2023-04-27T12:16:35.794Z,61.72
2023-04-27T12:17:35.756Z,61.82
2023-04-27T12:18:35.679Z,62.63
2023-04-27T12:19:35.677Z,62.84
2023-04-27T12:20:35.653Z,61.31
2023-04-27T12:21:35.632Z,60.50
2023-04-27T12:22:35.625Z,61.54
2023-04-27T12:23:35.616Z,61.95
2023-04-27T12:24:35.640Z,61.54
2023-04-27T12:25:35.590Z,62.56
2023-04-27T12:26:35.580Z,61.85
2023-04-27T12:27:35.571Z,60.32
2023-04-27T12:28:35.568Z,60.42
2023-04-27T12:29:35.576Z,61.07
2023-04-27T12:30:35.530Z,62.80
2023-04-27T12:31:35.651Z,61.65
2023-04-27T12:32:35.542Z,60.53
2023-04-27T12:33:35.520Z,61.24
2023-04-27T12:34:35.513Z,60.22
2023-04-27T12:35:35.527Z,61.44
2023-04-27T12:36:35.485Z,62.13
2023-04-27T12:37:35.466Z,62.63
2023-04-27T12:38:35.450Z,61.31
2023-04-27T12:39:35.451Z,59.68
2023-04-27T12:40:35.428Z,60.09
2023-04-27T12:41:35.418Z,61.00
2023-04-27T12:42:35.417Z,60.53
2023-04-27T12:43:35.391Z,60.12
2023-04-27T12:44:35.398Z,61.57
2023-04-27T12:45:35.384Z,59.77
2023-04-27T12:46:35.396Z,61.80
2023-04-27T12:48:35.368Z,63.47
2023-04-27T12:49:35.354Z,64.18
2023-04-27T12:50:35.331Z,63.78
2023-04-27T12:51:35.319Z,64.18
2023-04-27T12:52:35.315Z,65.00
2023-04-27T12:53:35.290Z,65.81